Terminal Aerodrome Forecast
Issued by NWS

Home | Current Version | Previous Version | Text Only | Print | Product List | Glossary On
Versions: 1 2 3 4 5 6 7 8 9 10 11 12 13
000
FTUS43 KUNR 210232 AAA
TAFGCC
TAF AMD
KGCC 210232Z 2103/2124 16012KT P6SM SCT015 OVC090
      TEMPO 2103/2104 BKN015=

USA.gov is the U.S. government's official web portal to all federal, state and local government web resources and services.